createdAt,value
2019-05-07T00:01:16.833Z,4.14
2019-05-07T00:05:19.178Z,4.09
2019-05-07T00:09:23.337Z,4.15
2019-05-07T00:13:25.472Z,4.20
2019-05-07T00:17:27.710Z,4.25
2019-05-07T00:21:29.831Z,4.29
2019-05-07T00:25:32.928Z,4.33
2019-05-07T00:29:35.265Z,4.34
2019-05-07T00:33:38.337Z,4.45
2019-05-07T00:37:55.538Z,4.50
2019-05-07T00:42:04.423Z,4.59
2019-05-07T00:46:12.936Z,4.63
2019-05-07T00:50:22.502Z,4.65
2019-05-07T00:54:24.977Z,4.70
2019-05-07T00:58:27.499Z,4.71
2019-05-07T01:02:32.191Z,4.76
2019-05-07T01:06:33.800Z,4.74
2019-05-07T01:10:35.826Z,4.71
2019-05-07T01:14:38.549Z,4.76
2019-05-07T01:18:42.082Z,4.77
2019-05-07T01:22:44.709Z,4.75
2019-05-07T01:26:46.890Z,4.75
2019-05-07T01:30:49.133Z,4.68
2019-05-07T01:34:55.924Z,4.59
2019-05-07T01:38:58.110Z,4.57
2019-05-07T01:43:02.438Z,4.45
2019-05-07T01:47:04.161Z,4.32
2019-05-07T01:51:06.297Z,4.22
2019-05-07T01:55:08.654Z,4.18
2019-05-07T01:59:12.086Z,4.13
2019-05-07T02:03:23.054Z,4.09
2019-05-07T02:07:35.541Z,4.03
2019-05-07T02:11:42.237Z,3.99
2019-05-07T02:15:57.400Z,3.94
2019-05-07T02:19:48.622Z,3.88
2019-05-07T02:23:52.373Z,3.87
2019-05-07T02:27:54.630Z,3.83
2019-05-07T02:31:56.870Z,3.81
2019-05-07T02:35:59.308Z,3.82
2019-05-07T02:40:23.479Z,3.89
2019-05-07T02:44:25.789Z,3.98
2019-05-07T02:48:33.482Z,4.09
2019-05-07T02:52:56.856Z,4.20
2019-05-07T02:56:59.001Z,4.27
2019-05-07T03:01:04.450Z,4.36
2019-05-07T03:05:05.638Z,4.47
2019-05-07T03:09:08.255Z,4.54
2019-05-07T03:13:13.448Z,4.58
2019-05-07T03:17:14.537Z,4.64
2019-05-07T03:21:19.389Z,4.71
2019-05-07T03:25:26.315Z,4.76
2019-05-07T03:29:28.504Z,4.79
2019-05-07T03:33:47.188Z,4.82
2019-05-07T03:37:48.520Z,4.81
2019-05-07T03:41:53.084Z,4.77
2019-05-07T03:46:03.857Z,4.75
2019-05-07T03:50:08.009Z,4.75
2019-05-07T03:54:10.254Z,4.79
2019-05-07T03:58:14.599Z,4.83
2019-05-07T04:02:16.244Z,4.86
2019-05-07T04:06:18.478Z,4.90
2019-05-07T04:10:23.178Z,4.97
2019-05-07T04:14:27.272Z,5.04
2019-05-07T04:18:35.228Z,5.11
2019-05-07T04:22:37.542Z,5.15
2019-05-07T04:26:43.158Z,5.25
2019-05-07T04:30:45.476Z,5.32
2019-05-07T04:35:04.183Z,5.39
2019-05-07T04:39:08.645Z,5.42
2019-05-07T04:43:13.608Z,5.62
2019-05-07T04:47:32.256Z,5.79
2019-05-07T04:51:24.122Z,5.90
2019-05-07T04:55:26.355Z,6.07
2019-05-07T04:59:28.641Z,6.15
2019-05-07T05:03:34.607Z,6.30
2019-05-07T05:07:35.395Z,6.41
2019-05-07T05:11:37.544Z,6.48
2019-05-07T05:15:39.801Z,6.61
2019-05-07T05:19:43.896Z,6.77
2019-05-07T05:24:12.628Z,6.93
2019-05-07T05:28:15.250Z,6.96
2019-05-07T05:32:17.405Z,6.94
2019-05-07T05:36:22.021Z,6.97
2019-05-07T05:40:23.546Z,7.18
2019-05-07T05:44:31.860Z,7.44
2019-05-07T05:48:33.616Z,7.44
2019-05-07T05:52:42.582Z,7.49
2019-05-07T05:56:52.368Z,7.63
2019-05-07T06:01:13.113Z,7.69
2019-05-07T06:05:35.742Z,7.87
2019-05-07T06:10:02.448Z,7.98
2019-05-07T06:14:08.135Z,7.83
2019-05-07T06:18:29.350Z,7.86
2019-05-07T06:22:52.745Z,8.02
2019-05-07T06:26:54.189Z,8.15
2019-05-07T06:30:56.230Z,8.21
2019-05-07T06:34:58.240Z,8.23
2019-05-07T06:39:08.390Z,8.27
2019-05-07T06:43:38.439Z,8.61
2019-05-07T06:47:42.464Z,9.01
2019-05-07T06:51:44.341Z,9.43
2019-05-07T06:55:48.310Z,9.38
2019-05-07T06:59:54.180Z,9.29
2019-05-07T07:04:03.601Z,9.51
2019-05-07T07:08:32.539Z,9.74
2019-05-07T07:12:34.867Z,10.05
2019-05-07T07:16:37.033Z,10.67
2019-05-07T07:20:39.309Z,11.06
2019-05-07T07:24:42.423Z,11.05
2019-05-07T07:28:44.763Z,10.91
2019-05-07T07:32:48.263Z,10.60
2019-05-07T07:37:18.446Z,10.77
2019-05-07T07:41:39.365Z,10.72
2019-05-07T07:45:42.116Z,11.03
2019-05-07T07:49:44.650Z,11.13
2019-05-07T07:53:46.686Z,11.47
2019-05-07T07:58:07.741Z,12.23
2019-05-07T08:02:44.130Z,12.22
2019-05-07T08:06:48.250Z,12.04
2019-05-07T08:10:51.982Z,11.77
2019-05-07T08:14:54.340Z,11.41
2019-05-07T08:18:56.592Z,11.70
2019-05-07T08:22:58.850Z,11.88
2019-05-07T08:27:02.417Z,12.57
2019-05-07T08:31:27.532Z,12.89
2019-05-07T08:35:33.360Z,12.59
2019-05-07T08:39:35.596Z,11.97
2019-05-07T08:43:37.622Z,12.33
2019-05-07T08:47:46.599Z,12.93
2019-05-07T08:52:03.048Z,12.49
2019-05-07T08:56:04.526Z,13.13
2019-05-07T09:00:07.418Z,12.93
2019-05-07T09:04:09.666Z,12.74
2019-05-07T09:08:12.844Z,12.32
2019-05-07T09:12:16.275Z,12.35
2019-05-07T09:16:18.386Z,12.33
2019-05-07T09:20:22.706Z,12.15
2019-05-07T09:24:26.214Z,11.76
2019-05-07T09:28:46.523Z,11.86
2019-05-07T09:33:02.338Z,11.73
2019-05-07T09:37:05.991Z,11.97
2019-05-07T09:41:11.908Z,12.63
2019-05-07T09:45:14.955Z,12.87
2019-05-07T09:49:17.146Z,12.26
2019-05-07T09:53:19.423Z,12.08
2019-05-07T09:57:30.932Z,11.99
2019-05-07T10:01:25.829Z,13.21
2019-05-07T10:05:27.855Z,13.91
2019-05-07T10:09:30.082Z,12.99
2019-05-07T10:13:45.858Z,11.90
2019-05-07T10:17:52.665Z,11.69
2019-05-07T10:21:55.322Z,11.41
2019-05-07T10:25:58.999Z,11.38
2019-05-07T10:30:02.325Z,11.64
2019-05-07T10:34:06.334Z,13.02
2019-05-07T10:38:08.542Z,12.62
2019-05-07T10:42:12.345Z,11.92
2019-05-07T10:46:32.507Z,11.40
2019-05-07T10:50:38.898Z,11.26
2019-05-07T10:54:38.969Z,11.60
2019-05-07T10:58:41.741Z,11.92
2019-05-07T11:02:44.300Z,12.49
2019-05-07T11:06:48.152Z,13.17
2019-05-07T11:10:52.071Z,13.16
2019-05-07T11:14:54.511Z,13.29
2019-05-07T11:18:56.649Z,13.21
2019-05-07T11:22:59.023Z,13.23
2019-05-07T11:27:02.426Z,13.50
2019-05-07T11:31:05.064Z,13.45
2019-05-07T11:35:07.451Z,13.11
2019-05-07T11:39:12.214Z,12.47
2019-05-07T11:43:33.309Z,12.92
2019-05-07T11:47:36.013Z,13.42
2019-05-07T11:51:53.751Z,13.61
2019-05-07T11:55:56.032Z,13.51
2019-05-07T11:59:58.031Z,13.95
2019-05-07T12:04:02.005Z,13.61
2019-05-07T12:08:04.408Z,13.82
2019-05-07T12:12:06.911Z,13.78
2019-05-07T12:16:13.503Z,13.85
2019-05-07T12:20:13.195Z,13.73
2019-05-07T12:24:16.654Z,13.24
2019-05-07T12:28:18.967Z,13.39
2019-05-07T12:32:48.810Z,12.56
2019-05-07T12:36:52.428Z,12.16
2019-05-07T12:40:54.668Z,12.75
2019-05-07T12:44:56.915Z,12.38
2019-05-07T12:48:59.033Z,11.62
2019-05-07T12:53:07.397Z,11.08
2019-05-07T12:57:09.343Z,10.76
2019-05-07T13:01:32.806Z,10.66
2019-05-07T13:05:35.165Z,10.71
2019-05-07T13:09:38.350Z,11.13
2019-05-07T13:13:42.382Z,11.37
2019-05-07T13:17:44.949Z,11.54
2019-05-07T13:21:49.982Z,11.35
2019-05-07T13:25:52.276Z,11.70
2019-05-07T13:29:54.442Z,12.85
2019-05-07T13:33:57.441Z,12.28
2019-05-07T13:38:17.337Z,11.35
2019-05-07T13:42:46.303Z,12.50
2019-05-07T13:46:52.866Z,13.57
2019-05-07T13:50:54.532Z,12.13
2019-05-07T13:54:56.850Z,11.97
2019-05-07T13:58:59.087Z,12.17
2019-05-07T14:03:03.222Z,11.70
2019-05-07T14:07:05.316Z,11.20
2019-05-07T14:11:07.576Z,10.92
2019-05-07T14:15:10.027Z,10.62
2019-05-07T14:19:12.941Z,11.31
2019-05-07T14:23:15.296Z,12.46
2019-05-07T14:27:17.443Z,13.35
2019-05-07T14:31:19.795Z,13.55
2019-05-07T14:35:32.735Z,11.84
2019-05-07T14:39:35.138Z,12.15
2019-05-07T14:43:42.781Z,12.22
2019-05-07T14:47:45.310Z,13.38
2019-05-07T14:51:49.008Z,11.61
2019-05-07T14:55:51.404Z,10.43
2019-05-07T14:59:53.625Z,11.11
2019-05-07T15:03:56.058Z,14.83
2019-05-07T15:08:08.321Z,15.23
2019-05-07T15:12:02.289Z,15.23
2019-05-07T15:16:06.328Z,14.87
2019-05-07T15:20:08.784Z,14.66
2019-05-07T15:24:12.697Z,15.47
2019-05-07T15:28:14.947Z,16.48
2019-05-07T15:32:17.301Z,14.90
2019-05-07T15:36:19.539Z,15.39
2019-05-07T15:40:22.509Z,15.84
2019-05-07T15:44:25.113Z,15.10
2019-05-07T15:48:27.134Z,16.12
2019-05-07T15:52:57.665Z,15.52
2019-05-07T15:56:52.729Z,13.92
2019-05-07T16:00:55.027Z,12.62
2019-05-07T16:04:57.163Z,11.53
2019-05-07T16:09:04.472Z,11.13
2019-05-07T16:13:08.614Z,10.63
2019-05-07T16:17:24.543Z,10.24
2019-05-07T16:21:26.760Z,10.15
2019-05-07T16:25:29.317Z,10.13
2019-05-07T16:29:33.748Z,9.73
2019-05-07T16:33:35.479Z,9.01
2019-05-07T16:37:37.906Z,8.92
2019-05-07T16:41:42.044Z,8.75
2019-05-07T16:45:44.057Z,8.64
2019-05-07T16:49:46.236Z,8.27
2019-05-07T16:53:48.453Z,8.17
2019-05-07T16:58:02.845Z,8.03
2019-05-07T17:02:11.531Z,7.83
2019-05-07T17:06:13.805Z,7.70
2019-05-07T17:10:16.053Z,7.58
2019-05-07T17:14:18.162Z,7.54
2019-05-07T17:18:22.172Z,7.27
2019-05-07T17:22:24.359Z,7.07
2019-05-07T17:26:26.908Z,6.92
2019-05-07T17:30:29.142Z,6.78
2019-05-07T17:34:31.379Z,6.65
2019-05-07T17:38:33.664Z,6.53
2019-05-07T17:42:35.829Z,6.40
2019-05-07T17:46:38.129Z,6.33
2019-05-07T17:50:57.960Z,6.22
2019-05-07T17:55:02.170Z,6.08
2019-05-07T17:59:04.330Z,5.90
2019-05-07T18:03:37.960Z,5.83
2019-05-07T18:07:42.050Z,5.83
2019-05-07T18:11:44.370Z,5.64
2019-05-07T18:15:47.629Z,5.41
2019-05-07T18:19:50.881Z,5.22
2019-05-07T18:23:53.206Z,5.07
2019-05-07T18:27:55.529Z,5.03
2019-05-07T18:32:01.348Z,4.89
2019-05-07T18:36:04.846Z,4.74
2019-05-07T18:40:07.191Z,4.61
2019-05-07T18:44:12.822Z,4.53
2019-05-07T18:48:13.352Z,4.54
2019-05-07T18:52:15.598Z,4.37
2019-05-07T18:56:17.805Z,4.16
2019-05-07T19:00:26.454Z,3.90
2019-05-07T19:04:30.259Z,3.76
2019-05-07T19:08:35.631Z,3.60
2019-05-07T19:12:39.011Z,3.42
2019-05-07T19:16:43.063Z,3.27
2019-05-07T19:20:45.750Z,3.12
2019-05-07T19:24:48.310Z,3.08
2019-05-07T19:28:50.599Z,2.96
2019-05-07T19:32:52.868Z,2.98
2019-05-07T19:36:55.178Z,3.07
2019-05-07T19:40:57.383Z,3.24
2019-05-07T19:44:59.556Z,3.12
2019-05-07T19:49:02.772Z,3.09
2019-05-07T19:53:06.286Z,3.12
2019-05-07T19:57:11.840Z,3.04
2019-05-07T20:01:15.924Z,2.99
2019-05-07T20:05:18.368Z,2.83
2019-05-07T20:09:24.327Z,2.80
2019-05-07T20:13:27.405Z,2.71
2019-05-07T20:17:31.404Z,2.51
2019-05-07T20:21:35.205Z,2.43
2019-05-07T20:25:37.468Z,2.61
2019-05-07T20:29:39.529Z,2.63
2019-05-07T20:33:44.536Z,2.72
2019-05-07T20:37:46.674Z,2.66
2019-05-07T20:41:48.820Z,2.68
2019-05-07T20:45:51.859Z,2.81
2019-05-07T20:49:54.058Z,2.62
2019-05-07T20:54:15.223Z,2.63
2019-05-07T20:58:17.452Z,2.66
2019-05-07T21:02:19.822Z,2.47
2019-05-07T21:06:22.545Z,2.29
2019-05-07T21:10:24.793Z,2.20
2019-05-07T21:14:27.127Z,2.25
2019-05-07T21:18:29.342Z,2.20
2019-05-07T21:22:32.026Z,2.17
2019-05-07T21:26:34.208Z,2.19
2019-05-07T21:30:36.437Z,2.35
2019-05-07T21:34:38.669Z,2.25
2019-05-07T21:38:42.605Z,2.23
2019-05-07T21:42:44.958Z,2.40
2019-05-07T21:46:47.102Z,2.27
2019-05-07T21:50:49.385Z,2.28
2019-05-07T21:55:06.651Z,2.28
2019-05-07T21:59:12.678Z,2.15
2019-05-07T22:03:17.025Z,2.22
2019-05-07T22:07:19.340Z,2.17
2019-05-07T22:11:22.980Z,2.27
2019-05-07T22:16:13.351Z,2.25
2019-05-07T22:20:15.614Z,2.52
2019-05-07T22:24:18.058Z,2.65
2019-05-07T22:28:21.984Z,2.67
2019-05-07T22:32:46.435Z,2.73
2019-05-07T22:36:48.783Z,2.77
2019-05-07T22:40:55.744Z,2.75
2019-05-07T22:44:59.279Z,2.79
2019-05-07T22:49:03.059Z,2.92
2019-05-07T22:53:05.589Z,2.96
2019-05-07T22:57:19.581Z,2.99
2019-05-07T23:01:22.609Z,2.97
2019-05-07T23:05:25.067Z,2.98
2019-05-07T23:09:27.197Z,2.91
2019-05-07T23:13:31.751Z,2.87
2019-05-07T23:17:33.312Z,2.77
2019-05-07T23:21:35.620Z,2.69
2019-05-07T23:25:39.506Z,2.58
2019-05-07T23:29:43.837Z,2.50
2019-05-07T23:33:45.908Z,2.39
2019-05-07T23:37:48.228Z,2.30
2019-05-07T23:41:58.221Z,2.31
2019-05-07T23:46:02.205Z,2.22
2019-05-07T23:50:04.459Z,2.17
2019-05-07T23:54:06.658Z,2.18
2019-05-07T23:58:08.878Z,2.16
